createdAt,value
2022-11-13T00:01:41.209Z,3.70
2022-11-13T00:04:27.053Z,4.18
2022-11-13T00:07:12.647Z,6.35
2022-11-13T00:09:58.300Z,13.25
2022-11-13T00:12:43.880Z,18.55
2022-11-13T00:15:29.607Z,4.50
2022-11-13T00:18:15.068Z,4.55
2022-11-13T00:21:15.583Z,2.90
2022-11-13T00:24:00.849Z,8.43
2022-11-13T00:26:46.281Z,1.25
2022-11-13T00:29:31.892Z,2.05
2022-11-13T00:32:17.402Z,1.77
2022-11-13T00:35:02.691Z,1.13
2022-11-13T00:37:48.279Z,3.10
2022-11-13T00:40:34.622Z,1.20
2022-11-13T00:43:19.962Z,4.72
2022-11-13T00:46:06.609Z,1.83
2022-11-13T00:48:51.943Z,2.53
2022-11-13T00:51:37.405Z,1.52
2022-11-13T00:54:23.000Z,2.92
2022-11-13T00:57:08.597Z,1.65
2022-11-13T00:59:54.233Z,2.30
2022-11-13T01:02:39.658Z,1.48
2022-11-13T01:05:26.007Z,1.02
2022-11-13T01:08:12.840Z,1.42
2022-11-13T01:10:59.039Z,1.42
2022-11-13T01:13:46.710Z,1.40
2022-11-13T01:16:32.193Z,0.98
2022-11-13T01:19:17.547Z,2.03
2022-11-13T01:22:03.237Z,1.42
2022-11-13T01:24:48.585Z,1.58
2022-11-13T01:27:37.083Z,2.03
2022-11-13T01:30:22.681Z,2.05
2022-11-13T01:33:08.183Z,3.92
2022-11-13T01:35:59.354Z,1.98
2022-11-13T01:38:45.238Z,2.30
2022-11-13T01:41:33.946Z,1.92
2022-11-13T01:44:20.379Z,2.30
2022-11-13T01:47:05.830Z,1.30
2022-11-13T01:49:54.952Z,1.15
2022-11-13T01:52:42.352Z,3.28
2022-11-13T01:55:28.119Z,2.42
2022-11-13T01:58:13.927Z,1.50
2022-11-13T02:00:59.487Z,2.33
2022-11-13T02:03:44.787Z,1.67
2022-11-13T02:06:55.412Z,2.20
2022-11-13T02:09:44.113Z,1.15
2022-11-13T02:12:39.214Z,1.20
2022-11-13T02:15:27.014Z,1.50
2022-11-13T02:18:14.247Z,3.35
2022-11-13T02:21:10.275Z,1.95
2022-11-13T02:24:17.486Z,1.80
2022-11-13T02:27:06.417Z,2.72
2022-11-13T02:29:51.806Z,2.97
2022-11-13T02:32:46.811Z,1.33
2022-11-13T02:35:37.748Z,2.60
2022-11-13T02:38:23.689Z,2.60
2022-11-13T02:41:08.860Z,1.73
2022-11-13T02:43:54.320Z,2.28
2022-11-13T02:46:39.844Z,3.25
2022-11-13T02:49:25.472Z,1.95
2022-11-13T02:52:10.957Z,2.90
2022-11-13T02:54:56.300Z,2.95
2022-11-13T02:57:41.883Z,2.78
2022-11-13T03:00:27.526Z,3.08
2022-11-13T03:03:13.009Z,1.90
2022-11-13T03:05:58.614Z,3.70
2022-11-13T03:08:43.902Z,1.30
2022-11-13T03:11:29.459Z,2.00
2022-11-13T03:14:14.967Z,1.60
2022-11-13T03:17:00.728Z,4.60
2022-11-13T03:19:46.087Z,2.50
2022-11-13T03:22:32.080Z,3.60
2022-11-13T03:25:17.805Z,2.25
2022-11-13T03:28:03.450Z,3.58
2022-11-13T03:30:48.878Z,2.35
2022-11-13T03:33:34.667Z,3.40
2022-11-13T03:36:20.344Z,3.38
2022-11-13T03:39:05.908Z,3.03
2022-11-13T03:41:51.512Z,3.70
2022-11-13T03:44:36.932Z,4.18
2022-11-13T03:47:22.490Z,2.50
2022-11-13T03:50:08.334Z,2.38
2022-11-13T03:52:53.849Z,3.88
2022-11-13T03:55:39.767Z,3.58
2022-11-13T03:58:25.174Z,6.97
2022-11-13T04:01:10.867Z,3.25
2022-11-13T04:03:56.281Z,3.10
2022-11-13T04:06:42.167Z,3.20
2022-11-13T04:09:27.858Z,5.78
2022-11-13T04:12:13.264Z,3.53
2022-11-13T04:14:58.821Z,3.72
2022-11-13T04:17:44.415Z,3.55
2022-11-13T04:20:30.246Z,2.67
2022-11-13T04:23:17.931Z,4.50
2022-11-13T04:26:05.335Z,4.38
2022-11-13T04:28:51.016Z,2.40
2022-11-13T04:31:36.649Z,4.38
2022-11-13T04:34:22.027Z,2.92
2022-11-13T04:37:07.723Z,2.67
2022-11-13T04:39:53.269Z,3.10
2022-11-13T04:42:50.798Z,6.47
2022-11-13T04:45:36.934Z,3.35
2022-11-13T04:48:22.512Z,3.45
2022-11-13T04:51:08.008Z,4.60
2022-11-13T04:53:53.318Z,4.63
2022-11-13T04:56:38.913Z,4.70
2022-11-13T04:59:24.652Z,9.48
2022-11-13T05:02:10.209Z,4.60
2022-11-13T05:04:58.219Z,3.42
2022-11-13T05:07:46.111Z,5.22
2022-11-13T05:10:31.593Z,7.70
2022-11-13T05:13:17.372Z,4.82
2022-11-13T05:16:04.968Z,5.20
2022-11-13T05:18:50.262Z,6.32
2022-11-13T05:21:37.258Z,4.53
2022-11-13T05:24:22.488Z,10.05
2022-11-13T05:27:10.456Z,7.15
2022-11-13T05:29:59.800Z,6.13
2022-11-13T05:32:45.319Z,4.65
2022-11-13T05:35:30.894Z,8.70
2022-11-13T05:38:16.589Z,8.40
2022-11-13T05:41:04.669Z,7.28
2022-11-13T05:43:55.022Z,9.50
2022-11-13T05:46:43.803Z,6.80
2022-11-13T05:49:29.403Z,8.68
2022-11-13T05:52:14.890Z,4.30
2022-11-13T05:55:00.536Z,10.57
2022-11-13T05:57:46.030Z,9.32
2022-11-13T06:00:31.535Z,6.05
2022-11-13T06:03:17.200Z,7.45
2022-11-13T06:06:02.999Z,6.25
2022-11-13T06:08:49.498Z,8.38
2022-11-13T06:11:34.757Z,7.53
2022-11-13T06:14:20.229Z,6.65
2022-11-13T06:17:05.837Z,5.78
2022-11-13T06:19:51.240Z,7.03
2022-11-13T06:22:36.775Z,11.02
2022-11-13T06:25:22.339Z,5.97
2022-11-13T06:28:07.930Z,12.27
2022-11-13T06:30:53.609Z,9.63
2022-11-13T06:33:40.221Z,9.93
2022-11-13T06:36:28.900Z,5.90
2022-11-13T06:39:14.341Z,7.18
2022-11-13T06:41:59.986Z,13.63
2022-11-13T06:44:45.635Z,11.45
2022-11-13T06:47:31.281Z,9.23
2022-11-13T06:50:17.010Z,6.50
2022-11-13T06:53:02.523Z,6.70
2022-11-13T06:55:49.946Z,7.90
2022-11-13T06:58:35.997Z,13.90
2022-11-13T07:01:24.338Z,6.85
2022-11-13T07:04:12.456Z,7.90
2022-11-13T07:06:58.152Z,8.82
2022-11-13T07:15:16.555Z,7.35
2022-11-13T07:18:03.690Z,8.35
2022-11-13T07:20:49.304Z,6.45
2022-11-13T07:23:37.134Z,7.13
2022-11-13T07:26:23.098Z,6.82
2022-11-13T07:29:08.582Z,6.10
2022-11-13T07:31:54.453Z,6.30
2022-11-13T07:34:39.756Z,9.77
2022-11-13T07:37:27.012Z,4.40
2022-11-13T07:40:12.896Z,4.50
2022-11-13T07:43:02.890Z,6.32
2022-11-13T07:45:54.641Z,7.47
2022-11-13T07:48:40.799Z,6.07
2022-11-13T07:51:29.349Z,6.75
2022-11-13T07:54:15.698Z,3.70
2022-11-13T07:57:00.891Z,7.70
2022-11-13T07:59:46.455Z,3.50
2022-11-13T08:02:31.964Z,5.93
2022-11-13T08:05:17.832Z,3.35
2022-11-13T08:08:03.859Z,3.90
2022-11-13T08:10:49.324Z,4.40
2022-11-13T08:13:36.150Z,3.88
2022-11-13T08:16:23.482Z,5.95
2022-11-13T08:19:09.683Z,6.72
2022-11-13T08:21:55.301Z,5.40
2022-11-13T08:24:41.023Z,6.03
2022-11-13T08:27:26.380Z,4.70
2022-11-13T08:30:13.033Z,8.40
2022-11-13T08:32:58.474Z,5.63
2022-11-13T08:35:53.488Z,6.72
2022-11-13T08:38:38.968Z,6.88
2022-11-13T08:41:24.751Z,4.32
2022-11-13T11:17:49.498Z,5.00
2022-11-13T11:21:00.650Z,5.72
2022-11-13T11:23:49.483Z,6.53
2022-11-13T11:27:03.370Z,4.82
2022-11-13T11:29:59.096Z,5.70
2022-11-13T11:32:53.415Z,5.20
2022-11-13T11:36:17.560Z,6.53
2022-11-13T11:39:12.548Z,6.03
2022-11-13T11:42:06.831Z,5.18
2022-11-13T11:45:00.070Z,5.00
2022-11-13T11:47:45.336Z,4.88
2022-11-13T11:50:55.813Z,8.85
2022-11-13T11:54:02.734Z,6.28
2022-11-13T11:56:59.916Z,8.05
2022-11-13T12:00:03.682Z,6.38
2022-11-13T12:40:53.762Z,10.07
2022-11-13T13:03:43.416Z,7.47
2022-11-13T13:06:37.943Z,7.72
2022-11-13T13:10:02.547Z,9.32
2022-11-13T13:13:21.003Z,8.35
2022-11-13T13:16:10.381Z,10.77
2022-11-13T13:19:20.742Z,12.38
2022-11-13T13:22:11.752Z,7.78
2022-11-13T13:25:10.587Z,8.68
2022-11-13T13:28:01.407Z,8.88
2022-11-13T13:31:20.335Z,9.25
2022-11-13T13:34:05.770Z,11.70
2022-11-13T13:37:15.022Z,10.13
2022-11-13T13:40:15.062Z,11.35
2022-11-13T13:43:09.869Z,8.93
2022-11-13T13:46:16.481Z,11.90
2022-11-13T13:49:16.347Z,9.88
2022-11-13T13:52:02.812Z,8.15
2022-11-13T13:54:49.249Z,11.82
2022-11-13T13:57:41.449Z,9.93
2022-11-13T14:09:18.534Z,11.52
2022-11-13T14:12:09.936Z,16.48
2022-11-13T14:14:56.074Z,10.88
2022-11-13T14:17:41.672Z,13.07
2022-11-13T14:20:27.428Z,11.98
2022-11-13T14:37:35.977Z,12.20
2022-11-13T14:40:33.930Z,12.80
2022-11-13T14:46:44.482Z,12.20
2022-11-13T15:20:23.207Z,16.88
2022-11-13T15:23:11.329Z,18.80
2022-11-13T15:25:57.640Z,17.35
2022-11-13T15:28:43.191Z,21.00
2022-11-13T15:31:42.125Z,17.35
2022-11-13T15:34:27.812Z,19.23
2022-11-13T15:37:16.799Z,19.25
2022-11-13T15:40:02.615Z,19.88
2022-11-13T15:42:48.297Z,17.35
2022-11-13T15:45:33.446Z,19.50
2022-11-13T15:48:18.821Z,19.35
2022-11-13T15:51:04.907Z,19.08
2022-11-13T15:53:57.095Z,17.02
2022-11-13T15:56:43.892Z,23.55
2022-11-13T15:59:29.339Z,21.73
2022-11-13T16:02:15.153Z,23.25
2022-11-13T16:05:00.617Z,15.80
2022-11-13T16:07:46.143Z,19.42
2022-11-13T16:10:31.670Z,22.15
2022-11-13T16:13:17.218Z,23.40
2022-11-13T16:16:02.881Z,18.60
2022-11-13T16:18:50.218Z,20.83
2022-11-13T16:21:35.637Z,19.33
2022-11-13T16:24:24.245Z,17.30
2022-11-13T16:27:15.009Z,21.75
2022-11-13T16:30:05.477Z,16.58
2022-11-13T16:32:52.345Z,21.95
2022-11-13T16:35:39.383Z,24.92
2022-11-13T16:38:24.823Z,23.50
2022-11-13T16:41:11.486Z,27.02
2022-11-13T16:43:56.784Z,23.98
2022-11-13T16:46:45.427Z,21.05
2022-11-13T16:49:30.760Z,16.42
2022-11-13T16:52:16.975Z,19.13
2022-11-13T16:55:06.267Z,21.67
2022-11-13T16:57:52.148Z,19.40
2022-11-13T17:00:37.788Z,23.02
2022-11-13T17:03:23.293Z,20.15
2022-11-13T17:06:28.344Z,23.90
2022-11-13T17:09:13.796Z,18.80
2022-11-13T17:11:59.343Z,18.13
2022-11-13T17:14:46.974Z,16.42
2022-11-13T17:17:32.275Z,18.80
2022-11-13T17:20:19.452Z,22.52
2022-11-13T17:23:04.930Z,29.52
2022-11-13T17:25:50.355Z,28.33
2022-11-13T17:28:35.698Z,19.58
2022-11-13T17:31:21.437Z,20.70
2022-11-13T17:34:07.094Z,20.13
2022-11-13T17:36:54.715Z,22.67
2022-11-13T17:39:40.049Z,24.38
2022-11-13T17:42:25.607Z,22.17
2022-11-13T17:45:11.142Z,24.95
2022-11-13T17:47:56.632Z,20.88
2022-11-13T17:50:42.328Z,21.00
2022-11-13T17:53:28.487Z,21.60
2022-11-13T17:56:14.907Z,18.75
2022-11-13T17:59:00.340Z,29.98
2022-11-13T18:01:45.975Z,19.75
2022-11-13T18:04:31.173Z,23.17
2022-11-13T18:07:16.920Z,21.15
2022-11-13T18:10:02.869Z,20.63
2022-11-13T18:12:48.312Z,24.48
2022-11-13T18:15:37.688Z,23.63
2022-11-13T18:18:23.091Z,23.40
2022-11-13T18:21:22.772Z,22.30
2022-11-13T18:24:13.535Z,22.90
2022-11-13T18:26:58.950Z,25.88
2022-11-13T18:29:44.456Z,24.75
2022-11-13T18:32:30.113Z,24.55
2022-11-13T18:35:16.001Z,27.25
2022-11-13T18:38:01.368Z,24.55
2022-11-13T18:40:46.706Z,25.50
2022-11-13T18:43:32.962Z,28.85
2022-11-13T18:46:20.767Z,51.58
2022-11-13T18:49:07.364Z,25.42
2022-11-13T18:51:53.006Z,25.15
2022-11-13T18:54:38.508Z,28.95
2022-11-13T18:57:24.289Z,26.08
2022-11-13T19:00:10.245Z,23.05
2022-11-13T19:02:57.577Z,27.63
2022-11-13T19:05:44.609Z,23.63
2022-11-13T19:08:30.151Z,30.63
2022-11-13T19:11:17.957Z,33.08
2022-11-13T19:14:04.455Z,30.13
2022-11-13T19:16:50.067Z,26.83
2022-11-13T19:19:35.459Z,27.88
2022-11-13T19:22:20.802Z,24.83
2022-11-13T19:25:06.750Z,23.25
2022-11-13T19:27:54.299Z,27.98
2022-11-13T19:30:48.497Z,26.70
2022-11-13T19:33:34.408Z,27.30
2022-11-13T19:36:19.655Z,27.75
2022-11-13T19:39:05.619Z,31.80
2022-11-13T19:41:51.089Z,29.45
2022-11-13T19:44:36.794Z,28.30
2022-11-13T19:47:22.021Z,25.88
2022-11-13T19:50:08.045Z,31.52
2022-11-13T19:52:53.614Z,29.05
2022-11-13T19:55:39.050Z,33.15
2022-11-13T19:58:25.286Z,26.60
2022-11-13T20:01:20.208Z,26.73
2022-11-13T20:04:06.221Z,28.95
2022-11-13T20:06:51.825Z,27.42
2022-11-13T20:09:37.983Z,29.90
2022-11-13T20:12:23.899Z,29.17
2022-11-13T20:15:09.774Z,30.45
2022-11-13T20:17:55.560Z,29.90
2022-11-13T20:20:44.211Z,31.58
2022-11-13T20:23:29.843Z,36.10
2022-11-13T20:26:16.745Z,26.15
2022-11-13T20:29:02.364Z,27.35
2022-11-13T20:31:47.926Z,33.47
2022-11-13T20:34:33.468Z,45.35
2022-11-13T20:37:18.755Z,42.50
2022-11-13T20:40:04.816Z,32.90
2022-11-13T20:42:50.211Z,45.70
2022-11-13T20:45:35.825Z,38.70
2022-11-13T20:48:21.302Z,39.40
2022-11-13T20:51:14.686Z,29.88
2022-11-13T20:54:00.231Z,42.42
2022-11-13T20:56:45.863Z,39.08
2022-11-13T20:59:31.215Z,41.70
2022-11-13T21:02:16.851Z,19.15
2022-11-13T21:05:02.396Z,21.67
2022-11-13T21:07:47.889Z,19.85
2022-11-13T21:10:34.302Z,21.10
2022-11-13T21:13:20.099Z,22.70
2022-11-13T21:16:10.279Z,22.27
2022-11-13T21:18:58.100Z,21.23
2022-11-13T21:21:44.558Z,20.92
2022-11-13T21:24:30.331Z,21.88
2022-11-13T21:27:16.135Z,19.45
2022-11-13T21:30:01.468Z,19.67
2022-11-13T21:32:47.033Z,18.77
2022-11-13T21:35:32.708Z,19.75
2022-11-13T21:38:18.022Z,19.52
2022-11-13T21:41:24.100Z,19.77
2022-11-13T21:44:10.871Z,21.23
2022-11-13T21:46:56.331Z,17.92
2022-11-13T21:49:42.106Z,21.33
2022-11-13T21:52:27.643Z,24.80
2022-11-13T21:55:12.901Z,28.98
2022-11-13T21:57:58.615Z,20.40
2022-11-13T22:00:44.439Z,18.50
2022-11-13T22:03:30.503Z,18.25
2022-11-13T22:06:28.420Z,19.52
2022-11-13T22:09:19.282Z,17.52
2022-11-13T22:12:04.873Z,19.17
2022-11-13T22:14:50.297Z,19.45
2022-11-13T22:17:35.855Z,20.45
2022-11-13T22:20:21.382Z,20.55
2022-11-13T22:23:06.790Z,23.75
2022-11-13T22:25:58.490Z,17.30
2022-11-13T22:28:45.304Z,19.67
2022-11-13T22:31:31.985Z,17.95
2022-11-13T22:34:18.259Z,19.27
2022-11-13T22:37:03.766Z,24.98
2022-11-13T22:39:49.205Z,22.23
2022-11-13T22:42:34.781Z,23.10
2022-11-13T22:45:24.424Z,23.30
2022-11-13T22:48:11.059Z,22.90
2022-11-13T22:51:01.631Z,22.73
2022-11-13T22:53:52.812Z,22.23
2022-11-13T22:56:40.018Z,19.88
2022-11-13T22:59:25.552Z,22.73
2022-11-13T23:02:11.027Z,22.25
2022-11-13T23:04:56.503Z,23.58
2022-11-13T23:07:41.693Z,22.88
2022-11-13T23:10:27.562Z,24.80
2022-11-13T23:13:13.453Z,23.10
2022-11-13T23:15:59.682Z,23.35
2022-11-13T23:18:46.044Z,22.00
2022-11-13T23:21:31.903Z,22.67
2022-11-13T23:24:17.875Z,21.95
2022-11-13T23:27:03.303Z,22.30
2022-11-13T23:29:50.249Z,21.50
2022-11-13T23:32:35.814Z,20.48
2022-11-13T23:35:21.336Z,20.70
2022-11-13T23:38:06.802Z,18.95
2022-11-13T23:40:57.237Z,18.23
2022-11-13T23:46:48.607Z,20.90
2022-11-13T23:49:33.878Z,17.30
2022-11-13T23:52:19.390Z,16.20
2022-11-13T23:55:05.129Z,16.98
2022-11-13T23:58:01.939Z,17.63
